Time;durP1;ratioP1;P1;durP2;ratioP2;P2;SDS_P1;SDS_P2;PMS_P1;PMS_P2;Temp;Humidity;BMP_temperature;BMP_pressure;BME280_temperature;BME280_humidity;BME280_pressure;Samples;Min_cycle;Max_cycle;Signal;HPM_P1;HPM_P2
2021/08/25 00:00:04;;;;;;;10.17;3.90;;;12.50;1.00;;;;;;5035426;28;20263;-61
2021/08/25 00:02:31;;;;;;;6.53;3.57;;;12.50;1.00;;;;;;5035595;28;20227;-62
2021/08/25 00:04:57;;;;;;;8.43;4.20;;;12.50;1.00;;;;;;5035121;28;20671;-60
2021/08/25 00:07:27;;;;;;;5.30;3.50;;;12.50;1.00;;;;;;5035504;28;20206;-61
2021/08/25 00:09:54;;;;;;;6.47;4.07;;;12.50;1.00;;;;;;5035263;28;20296;-62
2021/08/25 00:12:20;;;;;;;11.37;4.53;;;12.50;1.00;;;;;;5035163;28;20755;-62
2021/08/25 00:14:47;;;;;;;6.87;3.40;;;12.50;5.40;;;;;;5035003;28;20683;-60
2021/08/25 00:17:15;;;;;;;5.03;3.20;;;12.50;50.50;;;;;;5035246;28;20206;-61
2021/08/25 00:19:42;;;;;;;8.57;3.57;;;12.40;99.90;;;;;;5035585;28;20229;-62
2021/08/25 00:22:11;;;;;;;6.73;3.90;;;12.40;99.90;;;;;;5036499;28;20230;-62
2021/08/25 00:24:38;;;;;;;5.87;3.33;;;12.30;99.90;;;;;;5034866;28;20200;-62
2021/08/25 00:27:04;;;;;;;5.27;3.63;;;12.20;99.90;;;;;;5035070;28;20260;-62
2021/08/25 00:29:31;;;;;;;7.97;3.23;;;12.10;99.90;;;;;;5035062;28;20206;-62
2021/08/25 00:31:58;;;;;;;6.67;3.73;;;12.10;99.90;;;;;;5034870;28;20226;-62
2021/08/25 00:34:26;;;;;;;6.90;3.73;;;12.00;1.00;;;;;;5034834;28;20225;-62
2021/08/25 00:36:52;;;;;;;4.93;3.53;;;12.00;1.00;;;;;;5034905;28;20237;-62
2021/08/25 00:39:19;;;;;;;8.93;3.77;;;12.00;1.00;;;;;;5034678;28;20259;-62
2021/08/25 00:41:45;;;;;;;6.60;3.93;;;11.90;1.00;;;;;;5034855;28;20230;-62
2021/08/25 00:44:14;;;;;;;5.73;3.70;;;11.90;1.00;;;;;;5033473;28;20199;-61
2021/08/25 00:46:40;;;;;;;5.87;3.73;;;11.90;99.90;;;;;;5034813;28;20207;-62
2021/08/25 00:49:07;;;;;;;6.83;4.10;;;11.90;99.90;;;;;;5034598;28;20255;-62
2021/08/25 00:51:35;;;;;;;5.80;3.73;;;11.80;99.90;;;;;;5034463;28;20234;-62
2021/08/25 00:54:02;;;;;;;5.60;3.63;;;11.80;99.90;;;;;;5034167;28;20230;-62
2021/08/25 00:56:29;;;;;;;5.60;4.00;;;11.80;99.90;;;;;;5034653;28;20630;-62
2021/08/25 00:58:55;;;;;;;8.67;3.97;;;11.70;1.00;;;;;;5034294;28;20675;-62
2021/08/25 01:01:36;;;;;;;7.40;4.27;;;11.70;9.00;;;;;;5034381;28;20207;-62
2021/08/25 01:04:07;;;;;;;8.07;4.30;;;11.70;99.90;;;;;;5034241;28;20206;-62
2021/08/25 01:06:37;;;;;;;7.77;3.70;;;11.60;99.90;;;;;;5034406;28;20213;-62
2021/08/25 01:09:04;;;;;;;5.57;3.80;;;11.60;1.00;;;;;;5034321;28;20221;-61
2021/08/25 01:11:32;;;;;;;7.77;3.87;;;11.60;1.00;;;;;;5034089;28;20717;-62
2021/08/25 01:13:58;;;;;;;7.77;4.37;;;11.50;99.90;;;;;;5033965;28;20229;-62
2021/08/25 01:16:26;;;;;;;4.27;3.50;;;11.50;1.00;;;;;;5034192;28;20253;-62
2021/08/25 01:18:53;;;;;;;6.67;3.60;;;11.40;98.50;;;;;;5034049;28;20210;-62
2021/08/25 01:21:20;;;;;;;9.57;4.83;;;11.40;99.90;;;;;;5034049;28;20210;-62
2021/08/25 01:23:48;;;;;;;9.07;4.60;;;11.40;99.90;;;;;;5034012;28;20663;-62
2021/08/25 01:26:16;;;;;;;6.90;4.40;;;11.40;99.90;;;;;;5033974;28;20206;-62
2021/08/25 01:28:49;;;;;;;8.57;4.37;;;11.40;80.40;;;;;;5033908;28;20210;-62
2021/08/25 01:31:19;;;;;;;7.53;4.80;;;11.40;1.00;;;;;;5033712;28;20217;-62
2021/08/25 01:33:46;;;;;;;8.63;4.83;;;11.30;1.00;;;;;;5033863;28;20280;-62
2021/08/25 01:36:15;;;;;;;10.00;5.17;;;11.30;99.90;;;;;;5033760;28;20206;-62
2021/08/25 01:38:48;;;;;;;6.47;4.37;;;11.30;99.90;;;;;;5033662;28;20212;-62
2021/08/25 01:41:15;;;;;;;8.77;4.80;;;11.30;99.90;;;;;;5033665;28;20206;-62
2021/08/25 01:43:42;;;;;;;9.50;5.33;;;11.30;99.90;;;;;;5033166;28;20202;-62
2021/08/25 01:46:08;;;;;;;9.33;5.07;;;11.30;99.90;;;;;;5033757;28;20210;-61
2021/08/25 01:48:36;;;;;;;9.67;5.80;;;11.20;99.90;;;;;;5033555;28;20254;-62
2021/08/25 01:51:04;;;;;;;7.80;5.07;;;11.20;1.00;;;;;;5033353;28;20207;-62
2021/08/25 01:53:31;;;;;;;7.57;4.90;;;11.20;1.00;;;;;;5033187;28;20252;-62
2021/08/25 01:55:57;;;;;;;7.67;5.20;;;11.20;1.00;;;;;;5033419;28;20206;-62
2021/08/25 01:58:24;;;;;;;9.30;5.77;;;11.20;79.10;;;;;;5033007;28;20210;-62
2021/08/25 02:00:50;;;;;;;9.33;5.27;;;11.20;99.90;;;;;;5033462;28;20370;-62
2021/08/25 02:03:17;;;;;;;8.23;5.47;;;11.10;99.90;;;;;;5033139;28;20227;-62
2021/08/25 02:05:45;;;;;;;8.73;4.83;;;11.10;99.90;;;;;;5032968;28;20210;-62
2021/08/25 02:08:12;;;;;;;10.37;5.20;;;11.10;99.90;;;;;;5033202;28;20211;-62
2021/08/25 02:10:39;;;;;;;8.27;5.30;;;11.10;70.30;;;;;;5033037;28;20214;-62
2021/08/25 02:13:06;;;;;;;11.37;5.27;;;11.00;79.10;;;;;;5032719;28;20226;-62
2021/08/25 02:15:33;;;;;;;11.70;5.70;;;11.00;99.90;;;;;;5032959;28;20264;-62
2021/08/25 02:17:59;;;;;;;7.30;5.33;;;11.00;99.90;;;;;;5032942;28;20211;-62
2021/08/25 02:20:26;;;;;;;9.70;6.37;;;11.00;99.90;;;;;;5032726;28;20210;-61
2021/08/25 02:22:54;;;;;;;9.60;5.90;;;10.90;1.00;;;;;;5032825;28;20276;-62
2021/08/25 02:25:20;;;;;;;10.50;6.30;;;10.90;99.90;;;;;;5032646;28;20198;-62
2021/08/25 02:27:47;;;;;;;11.90;6.47;;;11.00;99.90;;;;;;5032587;28;20256;-62
2021/08/25 02:30:14;;;;;;;11.20;5.87;;;11.00;1.00;;;;;;5033055;28;20202;-62
2021/08/25 02:32:41;;;;;;;8.93;6.43;;;11.00;1.20;;;;;;5032504;28;20226;-62
2021/08/25 02:35:09;;;;;;;11.50;5.73;;;11.00;96.20;;;;;;5032469;28;20226;-62
2021/08/25 02:37:36;;;;;;;13.77;6.37;;;11.00;99.90;;;;;;5032601;28;20210;-62
2021/08/25 02:40:05;;;;;;;9.13;6.43;;;11.00;99.90;;;;;;5032376;28;20263;-62
2021/08/25 02:42:31;;;;;;;9.63;6.30;;;10.90;99.90;;;;;;5032263;28;20718;-62
2021/08/25 02:44:58;;;;;;;12.73;6.07;;;10.90;99.90;;;;;;5032542;28;20259;-62
2021/08/25 02:47:25;;;;;;;8.63;5.80;;;10.90;99.90;;;;;;5032266;28;20848;-62
2021/08/25 02:49:51;;;;;;;8.93;5.63;;;10.80;99.90;;;;;;5032494;28;20562;-62
2021/08/25 02:52:18;;;;;;;10.50;6.03;;;10.80;99.90;;;;;;5032363;28;20227;-62
2021/08/25 02:54:45;;;;;;;9.43;6.00;;;10.80;99.90;;;;;;5031885;28;20656;-62
2021/08/25 02:57:13;;;;;;;8.07;5.73;;;10.80;99.90;;;;;;5032421;28;20210;-62
2021/08/25 02:59:39;;;;;;;9.23;5.63;;;10.80;99.90;;;;;;5032248;28;20210;-62
2021/08/25 03:02:06;;;;;;;8.57;6.10;;;10.80;99.90;;;;;;5032287;28;20364;-62
2021/08/25 03:04:33;;;;;;;8.37;5.90;;;10.80;99.90;;;;;;5031956;28;20611;-62
2021/08/25 03:06:59;;;;;;;12.27;6.03;;;10.80;99.90;;;;;;5031485;28;20636;-62
2021/08/25 03:09:26;;;;;;;7.43;5.57;;;10.70;99.90;;;;;;5031959;28;20214;-62
2021/08/25 03:11:53;;;;;;;10.67;6.10;;;10.70;99.90;;;;;;5032048;28;20227;-62
2021/08/25 03:14:21;;;;;;;11.60;6.67;;;10.70;99.90;;;;;;5031870;28;20570;-62
2021/08/25 03:16:47;;;;;;;12.50;6.07;;;10.70;99.90;;;;;;5032026;28;20210;-62
2021/08/25 03:19:14;;;;;;;9.13;6.17;;;10.70;99.90;;;;;;5032004;28;20259;-62
2021/08/25 03:21:41;;;;;;;8.57;5.53;;;10.70;99.90;;;;;;5031665;28;20229;-62
2021/08/25 03:24:08;;;;;;;11.93;5.97;;;10.70;99.90;;;;;;5032079;28;20206;-62
2021/08/25 03:26:35;;;;;;;10.47;7.00;;;10.60;99.90;;;;;;5032324;28;20201;-62
2021/08/25 03:29:02;;;;;;;9.10;6.10;;;10.60;99.90;;;;;;5032092;28;20210;-62
2021/08/25 03:31:31;;;;;;;8.83;6.20;;;10.60;99.90;;;;;;5031809;28;20254;-62
2021/08/25 03:33:57;;;;;;;12.37;6.80;;;10.60;99.90;;;;;;5031671;28;20229;-62
2021/08/25 03:36:24;;;;;;;9.10;6.73;;;10.60;99.90;;;;;;5031529;28;20206;-61
2021/08/25 03:38:51;;;;;;;11.47;7.07;;;10.60;99.90;;;;;;5031951;28;20205;-62
2021/08/25 03:41:17;;;;;;;11.27;7.03;;;10.60;1.00;;;;;;5031642;28;20264;-62
2021/08/25 03:43:44;;;;;;;11.60;7.40;;;10.60;1.00;;;;;;5031724;28;20274;-62
2021/08/25 03:46:10;;;;;;;12.70;7.17;;;10.60;1.00;;;;;;5031683;28;20210;-62
2021/08/25 03:48:38;;;;;;;10.67;7.00;;;10.60;1.00;;;;;;5031411;28;20237;-62
2021/08/25 03:51:05;;;;;;;9.50;6.57;;;10.60;1.00;;;;;;5031931;28;20911;-62
2021/08/25 03:53:32;;;;;;;10.30;7.30;;;10.50;1.00;;;;;;5031273;28;20295;-61
2021/08/25 03:55:58;;;;;;;11.63;7.33;;;10.50;1.00;;;;;;5031476;28;20210;-62
2021/08/25 03:58:25;;;;;;;9.23;6.70;;;10.50;1.00;;;;;;5031599;28;20256;-61
2021/08/25 04:00:53;;;;;;;9.00;6.10;;;10.50;1.00;;;;;;5031558;28;20209;-61
2021/08/25 04:03:19;;;;;;;10.77;7.17;;;10.50;1.00;;;;;;5031183;28;20233;-61
2021/08/25 04:05:47;;;;;;;10.47;6.60;;;10.50;1.00;;;;;;5031650;28;20264;-61
2021/08/25 04:08:14;;;;;;;13.70;7.20;;;10.50;1.00;;;;;;5031298;28;20670;-61
2021/08/25 04:10:41;;;;;;;10.40;6.67;;;10.50;1.00;;;;;;5031462;28;20206;-61
2021/08/25 04:13:07;;;;;;;10.23;7.27;;;10.40;1.00;;;;;;5031551;28;20226;-61
2021/08/25 04:15:34;;;;;;;9.90;6.80;;;10.40;1.00;;;;;;5031160;28;20649;-61
2021/08/25 04:18:01;;;;;;;11.30;8.00;;;10.40;1.00;;;;;;5033577;28;20212;-61
2021/08/25 04:20:27;;;;;;;11.20;7.40;;;10.40;1.00;;;;;;5035359;28;20272;-61
2021/08/25 04:22:55;;;;;;;10.23;7.77;;;10.40;1.00;;;;;;5035311;28;20256;-61
2021/08/25 04:25:22;;;;;;;12.53;7.73;;;10.40;1.00;;;;;;5034932;28;20261;-61
2021/08/25 04:27:49;;;;;;;15.13;8.23;;;10.40;1.00;;;;;;5035058;28;20263;-62
2021/08/25 04:30:15;;;;;;;10.60;7.13;;;10.40;1.00;;;;;;5035001;28;20214;-62
2021/08/25 04:32:42;;;;;;;10.53;6.70;;;10.40;1.00;;;;;;5034799;28;20237;-62
2021/08/25 04:35:09;;;;;;;10.67;7.90;;;10.40;1.00;;;;;;5035065;28;20306;-62
2021/08/25 04:37:36;;;;;;;8.87;6.60;;;10.40;1.00;;;;;;5034846;28;20202;-62
2021/08/25 04:40:05;;;;;;;8.40;6.70;;;10.30;1.00;;;;;;5034921;28;20210;-62
2021/08/25 04:42:32;;;;;;;10.60;7.33;;;10.30;1.00;;;;;;5034570;28;20236;-62
2021/08/25 04:44:59;;;;;;;10.00;6.80;;;10.30;1.00;;;;;;5034419;28;20240;-62
2021/08/25 04:47:25;;;;;;;10.60;6.90;;;10.30;1.00;;;;;;5034866;28;20264;-62
2021/08/25 04:49:52;;;;;;;9.90;6.87;;;10.30;1.00;;;;;;5034844;28;20621;-62
2021/08/25 04:52:19;;;;;;;10.20;7.77;;;10.40;1.00;;;;;;5034585;28;20226;-63
2021/08/25 04:54:45;;;;;;;13.00;7.30;;;10.40;1.00;;;;;;5034414;28;20283;-62
2021/08/25 04:57:13;;;;;;;16.13;7.77;;;10.40;1.00;;;;;;5034412;28;20209;-62
2021/08/25 04:59:40;;;;;;;11.67;7.83;;;10.30;1.00;;;;;;5034380;28;20276;-62
2021/08/25 05:02:07;;;;;;;10.13;7.90;;;10.30;1.00;;;;;;5034548;28;20233;-62
2021/08/25 05:04:33;;;;;;;11.27;7.97;;;10.40;1.50;;;;;;5034164;28;20206;-62
2021/08/25 05:07:00;;;;;;;14.73;8.27;;;10.40;14.50;;;;;;5034343;28;20206;-62
2021/08/25 05:09:27;;;;;;;11.57;8.37;;;10.40;55.70;;;;;;5034184;28;20344;-63
2021/08/25 05:11:53;;;;;;;11.00;8.07;;;10.40;91.80;;;;;;5032578;28;20228;-63
2021/08/25 05:14:22;;;;;;;10.77;8.43;;;10.50;99.90;;;;;;5033640;28;20232;-62
2021/08/25 05:16:49;;;;;;;11.63;8.13;;;10.50;99.90;;;;;;5034288;28;20208;-63
2021/08/25 05:19:15;;;;;;;12.13;8.40;;;10.50;99.90;;;;;;5033585;28;20207;-62
2021/08/25 05:21:42;;;;;;;15.77;9.27;;;10.50;99.90;;;;;;5045813;28;20232;-62
2021/08/25 05:24:09;;;;;;;14.57;9.80;;;10.50;99.90;;;;;;5053876;28;20282;-62
2021/08/25 05:26:35;;;;;;;13.43;9.33;;;10.50;99.90;;;;;;5054356;28;20278;-62
2021/08/25 05:29:02;;;;;;;14.93;10.50;;;10.60;99.90;;;;;;5053785;28;20210;-62
2021/08/25 05:31:30;;;;;;;13.50;10.17;;;10.60;99.90;;;;;;5054174;28;20290;-62
2021/08/25 05:33:57;;;;;;;11.93;9.53;;;10.60;99.90;;;;;;5054223;28;20205;-62
2021/08/25 05:36:24;;;;;;;13.10;9.97;;;10.60;99.90;;;;;;5053507;28;20583;-62
2021/08/25 05:38:50;;;;;;;15.57;9.57;;;10.60;99.90;;;;;;5053829;28;20267;-63
2021/08/25 05:41:17;;;;;;;12.53;9.27;;;10.70;99.90;;;;;;5053309;28;20209;-63
2021/08/25 05:43:44;;;;;;;11.83;9.57;;;10.70;99.90;;;;;;5053597;28;20210;-62
2021/08/25 05:46:10;;;;;;;12.33;9.63;;;10.80;99.90;;;;;;5053591;28;20263;-62
2021/08/25 05:48:38;;;;;;;11.80;9.00;;;10.80;99.90;;;;;;5053546;28;20206;-62
2021/08/25 05:51:05;;;;;;;12.77;10.43;;;10.90;99.90;;;;;;5053461;28;20209;-63
2021/08/25 05:53:31;;;;;;;14.57;9.87;;;11.00;99.90;;;;;;5052900;28;20230;-62
2021/08/25 05:55:58;;;;;;;12.33;9.37;;;11.00;99.90;;;;;;5053077;28;20233;-63
2021/08/25 05:58:25;;;;;;;15.63;9.27;;;11.10;99.90;;;;;;5053370;28;20214;-62
2021/08/25 06:00:51;;;;;;;10.07;8.77;;;11.10;99.90;;;;;;5053387;28;20205;-62
2021/08/25 06:03:18;;;;;;;14.57;9.17;;;11.20;99.90;;;;;;5053125;28;20237;-62
2021/08/25 06:05:46;;;;;;;14.77;9.50;;;11.30;99.90;;;;;;5053089;28;20239;-63
2021/08/25 06:08:13;;;;;;;13.77;8.93;;;11.40;99.90;;;;;;5052828;28;20206;-62
2021/08/25 06:10:40;;;;;;;13.20;9.07;;;11.50;99.90;;;;;;5052854;28;20263;-63
2021/08/25 06:13:07;;;;;;;12.90;8.40;;;11.60;99.90;;;;;;5052830;28;20283;-62
2021/08/25 06:15:33;;;;;;;9.53;7.97;;;11.70;99.90;;;;;;5044397;28;20222;-63
2021/08/25 06:18:00;;;;;;;10.67;7.93;;;11.80;99.90;;;;;;5032506;28;20210;-65
2021/08/25 06:20:28;;;;;;;8.17;7.07;;;11.90;99.90;;;;;;5032486;28;20206;-66
2021/08/25 06:22:56;;;;;;;11.93;7.57;;;12.00;99.90;;;;;;5032311;28;20321;-63
2021/08/25 06:25:24;;;;;;;10.77;7.37;;;12.10;99.90;;;;;;5032152;28;20261;-64
2021/08/25 06:27:50;;;;;;;9.90;7.90;;;12.20;99.90;;;;;;5032230;28;20215;-64
2021/08/25 06:30:17;;;;;;;11.30;7.07;;;12.30;14.60;;;;;;5032442;28;20206;-64
2021/08/25 06:32:43;;;;;;;8.93;7.10;;;12.50;1.00;;;;;;5032259;28;20230;-65
2021/08/25 06:35:10;;;;;;;18.87;12.70;;;12.50;1.00;;;;;;5032174;28;20237;-66
2021/08/25 06:37:37;;;;;;;10.40;7.40;;;12.70;99.90;;;;;;5031714;28;20211;-66
2021/08/25 06:40:06;;;;;;;10.63;7.27;;;12.80;99.90;;;;;;5032198;28;20631;-66
2021/08/25 06:42:33;;;;;;;10.87;6.43;;;12.90;1.00;;;;;;5031683;28;20227;-67
2021/08/25 06:44:59;;;;;;;9.03;6.50;;;13.00;99.90;;;;;;5032197;28;20206;-66
2021/08/25 06:47:26;;;;;;;11.30;5.90;;;13.10;91.30;;;;;;5031798;28;20678;-67
2021/08/25 06:49:53;;;;;;;13.77;6.60;;;13.20;99.90;;;;;;5032119;28;20216;-65
2021/08/25 06:52:19;;;;;;;12.80;8.33;;;13.30;1.00;;;;;;5031701;28;20705;-63
2021/08/25 06:54:46;;;;;;;12.27;6.73;;;13.40;1.00;;;;;;5031823;28;20282;-63
2021/08/25 06:57:14;;;;;;;8.30;5.17;;;13.50;99.90;;;;;;5031843;28;20563;-63
2021/08/25 06:59:40;;;;;;;11.10;5.30;;;13.60;99.90;;;;;;5031846;28;20213;-63
2021/08/25 07:02:07;;;;;;;7.57;5.37;;;13.60;74.70;;;;;;5031777;28;20229;-63
2021/08/25 07:04:34;;;;;;;12.23;4.97;;;13.70;1.00;;;;;;5031519;28;20293;-66
2021/08/25 07:07:00;;;;;;;8.37;5.00;;;13.80;99.90;;;;;;5031643;28;20271;-63
2021/08/25 07:09:27;;;;;;;9.83;5.47;;;13.90;99.90;;;;;;5031925;28;20270;-63
2021/08/25 07:11:54;;;;;;;8.80;5.00;;;14.00;99.90;;;;;;5031815;28;20229;-63
2021/08/25 07:14:22;;;;;;;10.37;4.67;;;14.00;99.90;;;;;;5031758;28;20214;-67
2021/08/25 07:16:48;;;;;;;10.00;4.93;;;14.20;99.90;;;;;;5031065;28;20230;-68
2021/08/25 07:19:15;;;;;;;9.03;5.53;;;14.50;1.00;;;;;;5031419;28;20209;-68
2021/08/25 07:21:41;;;;;;;7.17;4.80;;;14.60;99.90;;;;;;5031343;28;20784;-66
2021/08/25 07:24:08;;;;;;;7.07;4.77;;;14.80;99.90;;;;;;5031468;28;20213;-68
2021/08/25 07:26:35;;;;;;;7.63;4.90;;;14.90;99.90;;;;;;5031324;28;20206;-68
2021/08/25 07:29:01;;;;;;;7.27;4.70;;;15.00;99.90;;;;;;5030612;28;20344;-65
2021/08/25 07:31:29;;;;;;;11.07;5.20;;;15.10;99.90;;;;;;5031394;28;20230;-65
2021/08/25 07:33:56;;;;;;;11.03;5.07;;;15.30;99.90;;;;;;5031194;28;20252;-64
2021/08/25 07:36:23;;;;;;;7.97;5.00;;;15.50;99.90;;;;;;5031331;28;20313;-65
2021/08/25 07:38:50;;;;;;;9.17;4.67;;;15.80;99.90;;;;;;5031429;28;20210;-65
2021/08/25 07:41:17;;;;;;;8.37;4.60;;;15.80;99.90;;;;;;5031509;28;20202;-65
2021/08/25 07:43:44;;;;;;;10.67;5.40;;;15.90;1.00;;;;;;5031149;28;20210;-65
2021/08/25 07:46:11;;;;;;;8.60;5.10;;;15.90;1.00;;;;;;5030493;28;20230;-63
2021/08/25 07:48:39;;;;;;;11.20;6.73;;;16.00;1.00;;;;;;5031008;28;20239;-63
2021/08/25 07:51:09;;;;;;;9.10;5.70;;;16.20;8.00;;;;;;5031326;28;20619;-63
2021/08/25 07:53:36;;;;;;;7.87;5.30;;;16.20;1.00;;;;;;5034795;28;20268;-64
2021/08/25 07:56:02;;;;;;;10.33;5.23;;;16.30;1.00;;;;;;5034836;28;20226;-63
2021/08/25 07:58:29;;;;;;;9.00;5.10;;;16.40;1.00;;;;;;5035372;28;20202;-63
2021/08/25 08:00:56;;;;;;;8.83;4.60;;;16.50;1.00;;;;;;5034957;28;20210;-63
2021/08/25 08:03:23;;;;;;;7.50;4.47;;;16.60;1.00;;;;;;5035077;28;20229;-63
2021/08/25 08:05:51;;;;;;;11.73;4.73;;;16.80;1.00;;;;;;5034595;28;20202;-63
2021/08/25 08:08:17;;;;;;;7.67;4.27;;;17.00;1.00;;;;;;5035062;28;20207;-64
2021/08/25 08:10:44;;;;;;;6.67;3.93;;;17.20;1.00;;;;;;5035322;28;20289;-63
2021/08/25 08:13:11;;;;;;;9.63;4.47;;;17.30;99.90;;;;;;5034731;28;20307;-63
2021/08/25 08:15:37;;;;;;;7.73;3.90;;;17.50;99.90;;;;;;5034540;28;20271;-63
2021/08/25 08:18:10;;;;;;;5.07;2.97;;;17.80;99.90;;;;;;5034861;28;20202;-62
2021/08/25 08:20:37;;;;;;;7.37;4.10;;;17.90;99.90;;;;;;5035097;28;20289;-63
2021/08/25 08:23:05;;;;;;;6.97;3.80;;;18.00;99.90;;;;;;5034628;28;20253;-63
2021/08/25 08:25:32;;;;;;;7.47;4.43;;;18.20;99.90;;;;;;5033392;28;20256;-65
2021/08/25 08:27:59;;;;;;;8.70;3.90;;;18.20;99.90;;;;;;5034230;28;20264;-64
2021/08/25 08:30:26;;;;;;;7.07;4.10;;;18.00;99.90;;;;;;5035097;28;20210;-64
2021/08/25 08:32:52;;;;;;;8.87;4.37;;;18.10;99.90;;;;;;5034530;28;20681;-62
2021/08/25 08:35:19;;;;;;;7.30;4.43;;;18.10;99.90;;;;;;5034340;28;20278;-63
2021/08/25 08:37:45;;;;;;;10.03;4.93;;;18.20;99.90;;;;;;5034431;28;20202;-63
2021/08/25 08:40:14;;;;;;;8.57;4.60;;;18.30;99.90;;;;;;5034438;28;20562;-62
2021/08/25 08:42:41;;;;;;;9.03;4.43;;;18.40;99.90;;;;;;5034010;28;20239;-63
2021/08/25 08:45:10;;;;;;;8.57;4.47;;;18.50;99.90;;;;;;5034390;28;20279;-61
2021/08/25 08:47:37;;;;;;;10.27;4.43;;;18.70;99.90;;;;;;5034231;28;20202;-61
2021/08/25 08:50:05;;;;;;;9.17;4.73;;;18.90;99.90;;;;;;5034250;28;20210;-61
2021/08/25 08:52:31;;;;;;;8.00;4.13;;;19.10;99.90;;;;;;5034079;28;20284;-63
2021/08/25 08:54:58;;;;;;;13.57;4.70;;;19.20;99.90;;;;;;5033926;28;20214;-63
2021/08/25 08:57:26;;;;;;;10.27;4.20;;;19.10;99.90;;;;;;5034231;28;20230;-62
2021/08/25 08:59:53;;;;;;;9.37;4.77;;;19.10;99.90;;;;;;5034547;28;20214;-62
2021/08/25 09:02:39;;;;;;;9.97;4.50;;;19.00;99.90;;;;;;5034425;28;20230;-62
2021/08/25 09:05:16;;;;;;;10.00;5.00;;;18.90;99.90;;;;;;5032852;28;20212;-62
2021/08/25 09:07:52;;;;;;;9.53;4.33;;;19.00;99.90;;;;;;5034466;28;20190;-62
2021/08/25 09:10:23;;;;;;;10.80;4.30;;;19.10;99.90;;;;;;5034597;28;20205;-62
2021/08/25 09:12:52;;;;;;;6.87;4.13;;;19.30;99.90;;;;;;5034230;28;20230;-62
2021/08/25 09:15:20;;;;;;;10.57;4.50;;;19.40;99.90;;;;;;5034210;28;20256;-62
2021/08/25 09:17:46;;;;;;;9.23;5.03;;;19.40;99.90;;;;;;5034088;28;20257;-62
2021/08/25 09:20:14;;;;;;;8.80;4.43;;;19.50;99.90;;;;;;5034025;28;20569;-62
2021/08/25 09:22:41;;;;;;;10.67;4.43;;;19.50;99.90;;;;;;5033971;28;20226;-62
2021/08/25 09:25:08;;;;;;;10.13;4.37;;;19.50;99.90;;;;;;5033862;28;20207;-62
2021/08/25 09:27:35;;;;;;;7.40;4.17;;;19.50;99.90;;;;;;5033235;28;20256;-62
2021/08/25 09:30:05;;;;;;;7.47;4.03;;;19.60;99.90;;;;;;5034032;28;20214;-62
2021/08/25 09:32:33;;;;;;;9.53;4.70;;;19.50;99.90;;;;;;5033707;28;20315;-62
2021/08/25 09:35:01;;;;;;;9.53;4.27;;;19.60;99.90;;;;;;5033735;28;20206;-62
2021/08/25 09:37:29;;;;;;;9.73;4.43;;;19.70;99.90;;;;;;5033769;28;20642;-62
2021/08/25 09:39:58;;;;;;;10.40;4.30;;;19.90;99.90;;;;;;5033856;28;20210;-62
2021/08/25 09:42:25;;;;;;;6.83;4.20;;;20.00;99.90;;;;;;5033994;28;20317;-62
2021/08/25 09:45:01;;;;;;;7.67;4.27;;;20.00;99.90;;;;;;5033173;28;20210;-63
2021/08/25 09:47:54;;;;;;;6.43;4.07;;;20.10;99.90;;;;;;5033788;28;20202;-63
2021/08/25 09:50:23;;;;;;;6.70;4.03;;;20.20;99.90;;;;;;5033672;28;20206;-62
2021/08/25 09:52:50;;;;;;;8.13;3.57;;;20.30;99.90;;;;;;5033551;28;20234;-62
2021/08/25 09:55:28;;;;;;;6.10;3.63;;;20.20;99.90;;;;;;5033233;28;20210;-62
2021/08/25 09:57:56;;;;;;;5.93;3.50;;;20.10;99.90;;;;;;5033661;28;20272;-62
2021/08/25 10:00:23;;;;;;;6.83;3.50;;;20.10;99.90;;;;;;5033536;28;20206;-62
2021/08/25 10:02:51;;;;;;;5.80;3.60;;;20.20;99.90;;;;;;5033231;28;20288;-63
2021/08/25 10:05:26;;;;;;;7.47;4.67;;;20.50;99.90;;;;;;5032806;28;20570;-63
2021/08/25 10:07:53;;;;;;;7.90;4.13;;;20.60;99.90;;;;;;5033141;28;20205;-62
2021/08/25 10:10:19;;;;;;;7.93;4.23;;;20.70;99.90;;;;;;5033288;28;20214;-63
2021/08/25 10:12:49;;;;;;;8.53;4.60;;;20.80;99.90;;;;;;5033153;28;20226;-62
2021/08/25 10:15:40;;;;;;;7.70;4.47;;;20.90;99.90;;;;;;5032562;28;20576;-63
2021/08/25 10:18:22;;;;;;;10.63;4.83;;;21.00;99.90;;;;;;5033085;28;20210;-63
2021/08/25 10:20:50;;;;;;;9.43;3.90;;;20.80;99.90;;;;;;5033142;28;20577;-62
2021/08/25 10:23:17;;;;;;;6.33;4.30;;;21.00;99.90;;;;;;5033026;28;20222;-65
2021/08/25 10:26:05;;;;;;;12.13;4.17;;;20.70;99.90;;;;;;5029179;28;20256;-65
2021/08/25 10:29:08;;;;;;;8.30;4.13;;;20.60;99.90;;;;;;5032455;28;20210;-65
2021/08/25 10:32:20;;;;;;;8.97;4.00;;;20.60;99.90;;;;;;5032478;28;20226;-63
2021/08/25 10:35:20;;;;;;;7.90;4.73;;;20.70;99.90;;;;;;4984182;28;20265;-63
2021/08/25 10:37:49;;;;;;;6.17;4.03;;;20.90;99.90;;;;;;5012609;28;20239;-64
2021/08/25 10:40:17;;;;;;;7.33;3.90;;;20.90;99.90;;;;;;5012514;28;20211;-65
2021/08/25 10:42:49;;;;;;;7.73;4.03;;;20.90;99.90;;;;;;5012222;28;20227;-65
2021/08/25 10:45:18;;;;;;;8.37;3.90;;;20.80;99.90;;;;;;5011805;28;20217;-64
2021/08/25 10:47:58;;;;;;;6.93;3.93;;;20.70;99.90;;;;;;5018187;28;20795;-64
2021/08/25 10:50:40;;;;;;;9.23;4.20;;;20.90;99.90;;;;;;5031561;28;20202;-64
2021/08/25 10:53:41;;;;;;;7.53;3.90;;;20.80;99.90;;;;;;5031531;28;20288;-63
2021/08/25 10:56:10;;;;;;;6.20;4.03;;;20.90;99.90;;;;;;5031868;28;20230;-63
2021/08/25 10:58:45;;;;;;;7.53;4.00;;;21.00;99.90;;;;;;5032101;28;20206;-63
2021/08/25 11:01:26;;;;;;;6.93;4.03;;;21.00;99.90;;;;;;5031666;28;20224;-64
2021/08/25 11:03:53;;;;;;;6.67;3.80;;;20.90;99.90;;;;;;5031476;28;20214;-65
2021/08/25 11:06:38;;;;;;;7.30;4.30;;;21.00;99.90;;;;;;5031269;28;20628;-63
2021/08/25 11:09:14;;;;;;;6.80;3.80;;;21.10;99.90;;;;;;5032049;28;20296;-63
2021/08/25 11:11:43;;;;;;;7.27;3.97;;;21.20;99.90;;;;;;5031750;28;20229;-63
2021/08/25 11:14:16;;;;;;;10.00;4.70;;;21.40;99.90;;;;;;5031155;28;20210;-63
2021/08/25 11:16:43;;;;;;;12.70;4.53;;;21.10;99.90;;;;;;5031384;28;20647;-63
2021/08/25 11:19:21;;;;;;;12.27;4.70;;;20.90;99.90;;;;;;5031738;28;20211;-63
2021/08/25 11:21:47;;;;;;;8.93;4.50;;;21.10;99.90;;;;;;5031634;28;20233;-63
2021/08/25 11:24:16;;;;;;;17.53;4.80;;;21.30;99.90;;;;;;5030986;28;20269;-63
2021/08/25 11:26:42;;;;;;;7.93;3.80;;;21.30;99.90;;;;;;5031060;28;20638;-63
2021/08/25 11:29:16;;;;;;;9.03;4.77;;;21.40;99.90;;;;;;5031214;28;20622;-63
2021/08/25 11:31:43;;;;;;;7.93;3.77;;;21.30;99.90;;;;;;5031758;28;20230;-63
2021/08/25 11:34:12;;;;;;;10.93;4.63;;;21.30;99.90;;;;;;5031029;28;20206;-63
2021/08/25 11:36:55;;;;;;;7.10;3.70;;;21.40;99.90;;;;;;5031362;28;20642;-63
2021/08/25 11:39:23;;;;;;;10.87;4.30;;;21.50;99.90;;;;;;5031604;28;20209;-63
2021/08/25 11:41:50;;;;;;;8.50;4.33;;;21.60;99.90;;;;;;5031022;28;20300;-63
2021/08/25 11:44:42;;;;;;;6.80;3.70;;;21.70;99.90;;;;;;5030687;28;20209;-64
2021/08/25 11:47:11;;;;;;;6.23;3.53;;;21.70;99.90;;;;;;5031027;28;20659;-63
2021/08/25 11:49:38;;;;;;;6.93;4.23;;;21.70;99.90;;;;;;5031302;28;20257;-64
2021/08/25 11:52:05;;;;;;;5.90;4.33;;;21.60;99.90;;;;;;5031034;28;20253;-63
2021/08/25 11:54:33;;;;;;;12.37;9.00;;;21.70;99.90;;;;;;5030609;28;20271;-64
2021/08/25 11:57:00;;;;;;;7.90;5.03;;;21.70;99.90;;;;;;5031047;28;20230;-64
2021/08/25 11:59:26;;;;;;;6.03;3.93;;;21.90;99.90;;;;;;5031410;28;20260;-62
2021/08/25 12:02:03;;;;;;;6.53;3.60;;;21.60;99.90;;;;;;5031324;28;20227;-63
2021/08/25 12:04:30;;;;;;;7.33;4.53;;;21.50;99.90;;;;;;5030639;28;20256;-64
2021/08/25 12:06:57;;;;;;;9.80;4.47;;;21.40;99.90;;;;;;5030976;28;20210;-64
2021/08/25 12:09:33;;;;;;;7.47;4.20;;;21.50;99.90;;;;;;5031159;28;20221;-64
2021/08/25 12:12:00;;;;;;;9.67;4.67;;;21.70;99.90;;;;;;5031273;28;20293;-63
2021/08/25 12:14:27;;;;;;;12.47;5.10;;;21.40;99.90;;;;;;5030649;28;20729;-63
2021/08/25 12:17:05;;;;;;;7.33;4.63;;;21.30;99.90;;;;;;5031081;28;20222;-64
2021/08/25 12:19:34;;;;;;;6.47;4.00;;;21.40;99.90;;;;;;5031271;28;20264;-64
2021/08/25 12:22:19;;;;;;;8.77;4.80;;;21.60;99.90;;;;;;5030817;28;20253;-63
2021/08/25 12:24:47;;;;;;;10.27;5.57;;;21.60;99.90;;;;;;5029372;28;20210;-63
2021/08/25 12:27:14;;;;;;;6.63;4.20;;;21.60;99.90;;;;;;5030378;28;20202;-63
2021/08/25 12:29:43;;;;;;;6.33;4.47;;;21.80;99.90;;;;;;5029837;28;20264;-64
2021/08/25 12:32:11;;;;;;;8.00;4.10;;;22.00;99.90;;;;;;5030853;28;20245;-64
2021/08/25 12:35:02;;;;;;;7.73;3.90;;;22.10;99.90;;;;;;5030118;28;20198;-64
2021/08/25 12:37:48;;;;;;;6.97;4.00;;;22.20;99.90;;;;;;5030729;28;20226;-64
2021/08/25 12:40:19;;;;;;;8.13;4.67;;;22.20;99.90;;;;;;5032958;28;20202;-64
2021/08/25 12:42:46;;;;;;;9.87;5.03;;;22.00;99.90;;;;;;5034222;28;20226;-64
2021/08/25 12:45:13;;;;;;;6.63;4.53;;;22.10;99.90;;;;;;5033538;28;20210;-64
2021/08/25 12:47:40;;;;;;;7.17;4.23;;;22.10;99.90;;;;;;5034197;28;20717;-63
2021/08/25 12:50:07;;;;;;;9.07;4.37;;;21.90;99.90;;;;;;5034065;28;20206;-64
2021/08/25 12:52:33;;;;;;;10.77;4.63;;;22.10;99.90;;;;;;5033779;28;20230;-64